Time;durP1;ratioP1;P1;durP2;ratioP2;P2;SDS_P1;SDS_P2;PMS_P1;PMS_P2;Temp;Humidity;BMP_temperature;BMP_pressure;BME280_temperature;BME280_humidity;BME280_pressure;Samples;Min_cycle;Max_cycle;Signal;HPM_P1;HPM_P2
2023/06/17 00:01:07;;;;;;;12.85;10.98;;;14.50;99.90;;;;;;5004493;28;88743;-32
2023/06/17 00:03:33;;;;;;;14.98;12.30;;;14.50;99.90;;;;;;5000413;28;88200;-31
2023/06/17 00:05:58;;;;;;;12.75;11.27;;;14.50;99.90;;;;;;4999875;28;91055;-34
2023/06/17 00:08:24;;;;;;;12.18;10.90;;;14.50;99.90;;;;;;4999527;28;90679;-32
2023/06/17 00:10:50;;;;;;;14.25;12.85;;;14.50;99.90;;;;;;5002034;28;89748;-34
2023/06/17 00:13:19;;;;;;;13.82;11.15;;;14.40;99.90;;;;;;5010539;28;89344;-32
2023/06/17 00:15:47;;;;;;;13.00;11.68;;;14.40;99.90;;;;;;5014023;28;90572;-34
2023/06/17 00:18:13;;;;;;;;;;;14.30;99.90;;;;;;5019566;28;90265;-34
2023/06/17 00:20:38;;;;;;;12.30;11.13;;;14.30;99.90;;;;;;5018297;28;88841;-34
2023/06/17 00:23:04;;;;;;;16.08;11.77;;;14.20;99.90;;;;;;5000300;28;88161;-35
2023/06/17 00:25:30;;;;;;;12.95;11.73;;;14.30;99.90;;;;;;5001364;28;89887;-33
2023/06/17 00:27:55;;;;;;;14.07;11.20;;;14.20;99.90;;;;;;5019482;28;89853;-31
2023/06/17 00:30:21;;;;;;;14.05;12.07;;;14.10;99.90;;;;;;5002943;28;89489;-33
2023/06/17 00:32:46;;;;;;;13.85;12.55;;;14.20;99.90;;;;;;5009150;28;88177;-34
2023/06/17 00:35:12;;;;;;;14.43;11.13;;;14.20;99.90;;;;;;5014471;28;90249;-35
2023/06/17 00:37:38;;;;;;;13.73;12.43;;;14.20;99.90;;;;;;5007953;28;91091;-35
2023/06/17 00:40:07;;;;;;;15.05;12.85;;;14.30;99.90;;;;;;5014386;28;91121;-33
2023/06/17 00:42:34;;;;;;;13.65;11.35;;;14.30;99.90;;;;;;5008776;28;88117;-33
2023/06/17 00:44:59;;;;;;;12.52;11.10;;;14.40;99.90;;;;;;5001368;28;89978;-35
2023/06/17 00:47:25;;;;;;;13.27;11.98;;;14.40;99.90;;;;;;4999243;28;89467;-33
2023/06/17 00:49:53;;;;;;;16.52;13.30;;;14.50;99.90;;;;;;4993262;28;89580;-33
2023/06/17 00:52:20;;;;;;;22.90;15.85;;;14.50;99.90;;;;;;4990001;28;89828;-36
2023/06/17 00:54:46;;;;;;;20.83;15.05;;;14.60;99.90;;;;;;4994752;28;90767;-35
2023/06/17 00:57:13;;;;;;;15.63;13.68;;;14.60;99.90;;;;;;4998865;28;89012;-36
2023/06/17 00:59:42;;;;;;;18.55;16.00;;;14.70;99.90;;;;;;4998370;28;88554;-31
2023/06/17 01:02:09;;;;;;;18.33;15.48;;;14.70;99.90;;;;;;4998616;28;89577;-32
2023/06/17 01:04:37;;;;;;;16.67;14.37;;;14.70;99.90;;;;;;4998823;28;90755;-32
2023/06/17 01:07:16;;;;;;;20.38;15.95;;;14.80;99.90;;;;;;4999318;28;89762;-33
2023/06/17 01:09:47;;;;;;;19.48;16.17;;;14.80;99.90;;;;;;4998668;28;89611;-34
2023/06/17 01:12:14;;;;;;;20.98;18.15;;;14.90;99.90;;;;;;4999008;28;88505;-33
2023/06/17 01:14:42;;;;;;;23.65;20.38;;;14.90;99.90;;;;;;4998529;28;89572;-35
2023/06/17 01:17:12;;;;;;;21.70;18.47;;;14.90;99.90;;;;;;4998559;28;89469;-34
2023/06/17 01:19:48;;;;;;;25.38;20.40;;;14.90;99.90;;;;;;4986462;28;88177;-34
2023/06/17 01:22:16;;;;;;;26.00;19.75;;;14.90;99.90;;;;;;4979758;28;89533;-34
2023/06/17 01:24:43;;;;;;;22.83;19.33;;;15.00;99.90;;;;;;4999522;28;89874;-34
2023/06/17 01:27:08;;;;;;;24.35;19.92;;;15.00;99.90;;;;;;4997214;28;90275;-33
2023/06/17 01:29:36;;;;;;;25.10;21.10;;;15.00;99.90;;;;;;4998635;28;91217;-32
2023/06/17 01:32:05;;;;;;;27.35;19.70;;;15.00;99.90;;;;;;4998648;28;89487;-36
2023/06/17 01:34:42;;;;;;;29.67;20.52;;;15.00;99.90;;;;;;4998991;28;90778;-30
2023/06/17 01:37:11;;;;;;;27.03;21.77;;;15.00;99.90;;;;;;4999064;28;88424;-35
2023/06/17 01:39:40;;;;;;;28.75;22.75;;;15.00;99.90;;;;;;4999882;28;90015;-33
2023/06/17 01:42:13;;;;;;;22.25;19.80;;;15.00;99.90;;;;;;5000613;28;89569;-34
2023/06/17 01:44:39;;;;;;;26.20;21.48;;;15.00;99.90;;;;;;4999383;28;89823;-33
2023/06/17 01:47:09;;;;;;;24.83;22.38;;;15.00;99.90;;;;;;5000854;28;90605;-33
2023/06/17 01:49:35;;;;;;;26.08;21.33;;;15.00;99.90;;;;;;5000348;28;89956;-33
2023/06/17 01:52:01;;;;;;;25.05;20.52;;;15.10;99.90;;;;;;4997793;28;89481;-31
2023/06/17 01:54:27;;;;;;;25.00;22.05;;;15.10;99.90;;;;;;5011932;28;89432;-31
2023/06/17 01:56:53;;;;;;;23.38;20.05;;;15.10;99.90;;;;;;4998460;28;90486;-32
2023/06/17 01:59:19;;;;;;;24.83;20.98;;;15.00;99.90;;;;;;4997638;28;89738;-33
2023/06/17 02:01:44;;;;;;;25.42;20.70;;;15.00;99.90;;;;;;5005656;28;88035;-32
2023/06/17 02:04:10;;;;;;;27.58;19.92;;;15.10;99.90;;;;;;5016555;28;90296;-36
2023/06/17 02:06:37;;;;;;;25.52;21.33;;;15.10;99.90;;;;;;4998440;28;90740;-34
2023/06/17 02:09:03;;;;;;;24.40;21.73;;;15.10;99.90;;;;;;4997515;28;90353;-31
2023/06/17 02:11:28;;;;;;;25.15;22.20;;;15.10;99.90;;;;;;5018162;28;90075;-36
2023/06/17 02:13:54;;;;;;;26.55;21.88;;;15.00;99.90;;;;;;5004714;28;90415;-35
2023/06/17 02:16:20;;;;;;;28.00;22.00;;;15.00;99.90;;;;;;5016767;28;90314;-31
2023/06/17 02:18:47;;;;;;;29.38;21.52;;;14.90;99.90;;;;;;5003862;28;89940;-33
2023/06/17 02:21:13;;;;;;;25.65;22.35;;;15.00;99.90;;;;;;4998300;28;88295;-33
2023/06/17 02:23:38;;;;;;;27.45;24.13;;;15.00;99.90;;;;;;5010662;28;90244;-33
2023/06/17 02:26:04;;;;;;;26.45;22.27;;;15.00;99.90;;;;;;5011048;28;90011;-36
2023/06/17 02:28:30;;;;;;;29.92;23.33;;;15.00;99.90;;;;;;5010192;28;89472;-36
2023/06/17 02:30:55;;;;;;;30.00;21.83;;;15.10;99.90;;;;;;5004555;28;88578;-34
2023/06/17 02:33:22;;;;;;;27.77;21.60;;;15.10;99.90;;;;;;5003222;28;91922;-32
2023/06/17 02:35:48;;;;;;;34.97;24.52;;;15.00;99.90;;;;;;4997577;28;89807;-32
2023/06/17 02:38:15;;;;;;;29.73;21.17;;;15.00;99.90;;;;;;5000004;28;89602;-33
2023/06/17 02:40:40;;;;;;;25.95;22.70;;;15.00;99.90;;;;;;5007459;28;90185;-35
2023/06/17 02:43:07;;;;;;;29.15;22.35;;;15.00;99.90;;;;;;5019350;28;89899;-35
2023/06/17 02:45:32;;;;;;;26.08;22.17;;;15.10;99.90;;;;;;5020776;28;89621;-33
2023/06/17 02:47:58;;;;;;;31.33;24.08;;;15.00;99.90;;;;;;5018660;28;89841;-34
2023/06/17 02:50:25;;;;;;;32.78;23.27;;;15.10;99.90;;;;;;5008788;28;88506;-33
2023/06/17 02:52:55;;;;;;;24.43;22.03;;;15.00;99.90;;;;;;5006068;28;91306;-33
2023/06/17 02:55:22;;;;;;;22.80;20.38;;;15.00;99.90;;;;;;5013697;28;90831;-33
2023/06/17 02:57:48;;;;;;;24.20;21.48;;;15.10;99.90;;;;;;5000845;28;88973;-32
2023/06/17 03:00:14;;;;;;;25.48;22.25;;;15.10;99.90;;;;;;5009491;28;89825;-33
2023/06/17 03:02:39;;;;;;;27.83;20.20;;;15.10;99.90;;;;;;5005573;28;90360;-34
2023/06/17 03:05:06;;;;;;;27.35;21.95;;;15.10;99.90;;;;;;5000137;28;90663;-36
2023/06/17 03:07:35;;;;;;;24.80;21.08;;;15.20;99.90;;;;;;5001118;28;90133;-34
2023/06/17 03:10:02;;;;;;;33.83;24.02;;;15.20;99.90;;;;;;4993560;28;88064;-34
2023/06/17 03:12:28;;;;;;;25.23;21.77;;;15.20;99.90;;;;;;4982342;28;91956;-32
2023/06/17 03:14:54;;;;;;;28.80;22.25;;;15.10;99.90;;;;;;5009475;28;90020;-32
2023/06/17 03:17:21;;;;;;;29.00;24.23;;;15.10;99.90;;;;;;5017558;28;90613;-32
2023/06/17 03:19:47;;;;;;;37.38;24.45;;;15.10;99.90;;;;;;5000921;28;90294;-31
2023/06/17 03:22:12;;;;;;;30.48;24.42;;;15.10;99.90;;;;;;5013485;28;90283;-36
2023/06/17 03:24:38;;;;;;;29.48;21.60;;;15.10;99.90;;;;;;5000943;28;89231;-35
2023/06/17 03:27:04;;;;;;;23.27;20.95;;;15.10;99.90;;;;;;5012114;28;89678;-38
2023/06/17 03:29:30;;;;;;;25.55;22.67;;;15.10;99.90;;;;;;4999845;28;90667;-33
2023/06/17 03:31:57;;;;;;;25.92;22.45;;;15.00;99.90;;;;;;5012671;28;89630;-36
2023/06/17 03:34:24;;;;;;;29.48;22.17;;;15.00;99.90;;;;;;5008754;28;89993;-36
2023/06/17 03:36:50;;;;;;;25.75;22.95;;;15.00;99.90;;;;;;4986501;28;90940;-34
2023/06/17 03:39:15;;;;;;;28.80;23.00;;;15.00;99.90;;;;;;5000278;28;89093;-34
2023/06/17 03:41:41;;;;;;;28.33;23.08;;;15.00;99.90;;;;;;5013753;28;89804;-33
2023/06/17 03:44:07;;;;;;;30.42;25.75;;;15.00;99.90;;;;;;5008883;28;89221;-34
2023/06/17 03:46:32;;;;;;;25.20;22.30;;;15.00;99.90;;;;;;5016413;28;89864;-35
2023/06/17 03:48:58;;;;;;;27.73;24.77;;;15.00;99.90;;;;;;5009069;27;89371;-32
2023/06/17 03:51:24;;;;;;;29.00;23.63;;;15.00;99.90;;;;;;5003784;28;90158;-32
2023/06/17 03:53:50;;;;;;;28.27;25.27;;;15.00;99.90;;;;;;4999408;28;90157;-35
2023/06/17 03:56:15;;;;;;;34.33;26.02;;;15.00;99.90;;;;;;4999476;28;90210;-34
2023/06/17 03:58:41;;;;;;;26.45;21.98;;;15.00;99.90;;;;;;4983894;28;88793;-33
2023/06/17 04:01:07;;;;;;;25.55;22.70;;;15.00;99.90;;;;;;4999780;28;91666;-34
2023/06/17 04:03:34;;;;;;;26.23;22.10;;;15.00;99.90;;;;;;5007479;28;90005;-33
2023/06/17 04:06:01;;;;;;;38.83;24.67;;;15.00;99.90;;;;;;5005753;28;89546;-34
2023/06/17 04:08:27;;;;;;;24.55;21.08;;;15.10;99.90;;;;;;5011235;28;88495;-34
2023/06/17 04:10:53;;;;;;;29.15;23.88;;;15.10;99.90;;;;;;4999545;28;90442;-34
2023/06/17 04:13:18;;;;;;;33.25;24.08;;;15.00;99.90;;;;;;5008531;28;89725;-34
2023/06/17 04:15:47;;;;;;;27.08;23.88;;;15.10;99.90;;;;;;5004030;28;89672;-35
2023/06/17 04:18:12;;;;;;;32.30;23.90;;;15.10;99.90;;;;;;4999169;28;89626;-33
2023/06/17 04:20:39;;;;;;;28.05;22.35;;;15.10;99.90;;;;;;5012479;28;89992;-35
2023/06/17 04:23:04;;;;;;;26.95;22.55;;;15.20;99.90;;;;;;5000365;28;88339;-34
2023/06/17 04:25:32;;;;;;;25.88;21.48;;;15.10;99.90;;;;;;5001783;28;89723;-35
2023/06/17 04:28:01;;;;;;;25.33;21.87;;;15.10;99.90;;;;;;5010800;28;87604;-33
2023/06/17 04:30:26;;;;;;;27.65;24.67;;;15.20;99.90;;;;;;5023274;22;89955;-33
2023/06/17 04:32:55;;;;;;;32.58;27.20;;;15.10;99.90;;;;;;4960355;28;89344;-32
2023/06/17 04:35:21;;;;;;;27.70;24.55;;;15.10;99.90;;;;;;4958978;28;89462;-32
2023/06/17 04:37:53;;;;;;;29.90;23.98;;;15.20;99.90;;;;;;4960641;28;89906;-33
2023/06/17 04:40:22;;;;;;;28.63;25.17;;;15.10;99.90;;;;;;4959360;28;90267;-34
2023/06/17 04:42:48;;;;;;;31.15;25.00;;;15.20;99.90;;;;;;4959779;28;90766;-32
2023/06/17 04:45:15;;;;;;;30.55;25.88;;;15.20;99.90;;;;;;4959256;28;90639;-34
2023/06/17 04:47:42;;;;;;;31.65;25.13;;;15.20;99.90;;;;;;4959799;28;88310;-35
2023/06/17 04:50:07;;;;;;;33.20;25.42;;;15.20;99.90;;;;;;4959354;28;90511;-36
2023/06/17 04:52:33;;;;;;;35.10;25.73;;;15.20;99.90;;;;;;4960273;28;89596;-33
2023/06/17 04:54:59;;;;;;;34.42;25.83;;;15.20;99.90;;;;;;4958909;28;89238;-32
2023/06/17 04:57:24;;;;;;;28.55;25.45;;;15.30;99.90;;;;;;4960208;28;89100;-33
2023/06/17 04:59:50;;;;;;;30.60;26.17;;;15.30;99.90;;;;;;4959162;28;89802;-36
2023/06/17 05:02:16;;;;;;;28.42;25.48;;;15.30;99.90;;;;;;4960165;28;89624;-35
2023/06/17 05:04:41;;;;;;;33.65;29.23;;;15.30;99.90;;;;;;4959266;28;90626;-32
2023/06/17 05:07:07;;;;;;;28.77;25.98;;;15.30;99.90;;;;;;4958544;28;90409;-33
2023/06/17 05:09:33;;;;;;;30.27;24.33;;;15.20;99.90;;;;;;4959467;28;89974;-33
2023/06/17 05:11:59;;;;;;;28.55;23.05;;;15.10;99.90;;;;;;4957293;28;90266;-33
2023/06/17 05:14:24;;;;;;;29.27;24.38;;;15.20;99.90;;;;;;4952956;28;92113;-34
2023/06/17 05:16:50;;;;;;;30.65;25.58;;;15.30;99.90;;;;;;4959875;28;90173;-35
2023/06/17 05:19:16;;;;;;;36.88;27.20;;;15.20;99.90;;;;;;4958331;28;90438;-34
2023/06/17 05:21:41;;;;;;;34.40;27.27;;;15.20;99.90;;;;;;4959158;28;88953;-32
2023/06/17 05:24:07;;;;;;;31.00;27.00;;;15.20;99.90;;;;;;4959304;28;90057;-32
2023/06/17 05:26:32;;;;;;;32.63;25.48;;;15.20;99.90;;;;;;4959810;28;89072;-33
2023/06/17 05:28:58;;;;;;;31.55;25.35;;;15.30;99.90;;;;;;4958859;28;90184;-33
2023/06/17 05:31:24;;;;;;;31.98;25.52;;;15.30;99.90;;;;;;4957998;28;90384;-35
2023/06/17 05:33:49;;;;;;;30.80;26.65;;;15.20;99.90;;;;;;4958902;28;90586;-33
2023/06/17 05:36:15;;;;;;;30.50;26.35;;;15.30;99.90;;;;;;4958735;28;89011;-36
2023/06/17 05:38:41;;;;;;;33.38;25.25;;;15.30;99.90;;;;;;4958801;28;90379;-32
2023/06/17 05:41:06;;;;;;;34.17;27.30;;;15.30;99.90;;;;;;4958054;28;89625;-36
2023/06/17 05:43:32;;;;;;;35.30;26.48;;;15.30;99.90;;;;;;4959032;28;88968;-32
2023/06/17 05:45:57;;;;;;;36.38;25.95;;;15.30;99.90;;;;;;4959102;28;89190;-32
2023/06/17 05:48:23;;;;;;;30.67;25.30;;;15.40;99.90;;;;;;4958838;28;90325;-34
2023/06/17 05:50:49;;;;;;;27.92;23.38;;;15.50;99.90;;;;;;4959060;28;89799;-33
2023/06/17 05:53:15;;;;;;;27.75;24.75;;;15.50;99.90;;;;;;4955255;28;89533;-36
2023/06/17 05:55:41;;;;;;;31.77;24.90;;;15.50;99.90;;;;;;4956496;28;90277;-32
2023/06/17 05:58:06;;;;;;;31.33;25.42;;;15.50;99.90;;;;;;4956023;28;90378;-33
2023/06/17 06:00:32;;;;;;;32.17;23.80;;;15.40;99.90;;;;;;4957167;28;89843;-32
2023/06/17 06:03:01;;;;;;;27.58;24.25;;;15.50;99.90;;;;;;4957042;28;89760;-31
2023/06/17 06:05:27;;;;;;;36.22;25.98;;;15.50;99.90;;;;;;4956814;28;89987;-33
2023/06/17 06:07:52;;;;;;;28.38;25.00;;;15.50;99.90;;;;;;4955909;28;90689;-32
2023/06/17 06:10:20;;;;;;;29.98;24.73;;;15.50;99.90;;;;;;4956844;28;91624;-34
2023/06/17 06:12:46;;;;;;;33.53;25.27;;;15.50;99.90;;;;;;4955638;28;89195;-36
2023/06/17 06:15:13;;;;;;;28.40;23.08;;;15.60;99.90;;;;;;4956417;28;89127;-33
2023/06/17 06:17:38;;;;;;;27.98;23.77;;;15.60;99.90;;;;;;4952177;28;89213;-33
2023/06/17 06:20:05;;;;;;;29.85;25.55;;;15.60;99.90;;;;;;4955419;28;90633;-33
2023/06/17 06:22:30;;;;;;;29.25;24.83;;;15.60;99.90;;;;;;4956086;28;91272;-34
2023/06/17 06:24:56;;;;;;;29.77;23.95;;;15.70;99.90;;;;;;4956493;28;88704;-32
2023/06/17 06:27:21;;;;;;;28.73;25.73;;;15.70;99.90;;;;;;4955683;28;89910;-32
2023/06/17 06:29:47;;;;;;;28.25;24.52;;;15.70;99.90;;;;;;4956282;28;89551;-34
2023/06/17 06:32:13;;;;;;;29.80;23.58;;;15.70;99.90;;;;;;4954638;28;89274;-32
2023/06/17 06:34:38;;;;;;;30.20;24.00;;;15.70;99.90;;;;;;4956702;28;90061;-34
2023/06/17 06:37:04;;;;;;;33.13;24.42;;;15.80;99.90;;;;;;4955574;28;90363;-31
2023/06/17 06:39:30;;;;;;;36.38;22.42;;;15.80;99.90;;;;;;4955959;28;89674;-35
2023/06/17 06:41:56;;;;;;;25.80;22.33;;;15.90;99.90;;;;;;4955927;28;89603;-35
2023/06/17 06:44:21;;;;;;;24.02;21.60;;;15.80;99.90;;;;;;4948500;28;89270;-35
2023/06/17 06:46:47;;;;;;;27.52;21.63;;;15.90;99.90;;;;;;4955885;28;90902;-34
2023/06/17 06:49:12;;;;;;;30.73;23.08;;;15.90;99.90;;;;;;4957832;28;89693;-33
2023/06/17 06:51:39;;;;;;;28.70;25.02;;;16.00;99.90;;;;;;4962354;28;89847;-33
2023/06/17 06:54:05;;;;;;;30.38;23.35;;;16.00;99.90;;;;;;4960437;28;89780;-35
2023/06/17 06:56:30;;;;;;;27.60;24.65;;;15.90;99.90;;;;;;4954963;28;90389;-36
2023/06/17 06:58:56;;;;;;;28.13;22.70;;;15.90;99.90;;;;;;4956392;28;89056;-31
2023/06/17 07:01:28;;;;;;;31.33;22.70;;;16.10;99.90;;;;;;4955252;28;89545;-36
2023/06/17 07:03:54;;;;;;;27.23;21.10;;;16.20;99.90;;;;;;4956476;28;89899;-34
2023/06/17 07:06:19;;;;;;;24.70;21.45;;;16.20;99.90;;;;;;4954814;28;89301;-36
2023/06/17 07:08:45;;;;;;;25.25;20.58;;;16.20;99.90;;;;;;4955635;28;91507;-33
2023/06/17 07:11:11;;;;;;;27.30;22.67;;;16.30;99.90;;;;;;4938589;28;90145;-33
2023/06/17 07:13:36;;;;;;;27.42;23.77;;;16.40;99.90;;;;;;4956501;28;88733;-36
2023/06/17 07:16:04;;;;;;;25.05;22.45;;;16.40;99.90;;;;;;4955131;28;90540;-35
2023/06/17 07:18:30;;;;;;;27.92;24.85;;;16.50;99.90;;;;;;4949518;28;89595;-36
2023/06/17 07:20:56;;;;;;;28.33;21.85;;;16.60;99.90;;;;;;4955265;28;88793;-32
2023/06/17 07:23:22;;;;;;;23.95;21.52;;;16.60;99.90;;;;;;4955135;28;90162;-35
2023/06/17 07:25:48;;;;;;;25.52;20.63;;;16.70;99.90;;;;;;4958325;28;90141;-32
2023/06/17 07:28:14;;;;;;;23.77;20.75;;;16.80;99.90;;;;;;4950993;28;89444;-32
2023/06/17 07:30:40;;;;;;;29.95;21.42;;;16.90;99.90;;;;;;4957910;28;90151;-33
2023/06/17 07:33:06;;;;;;;24.17;21.63;;;17.00;99.90;;;;;;4957842;28;89127;-37
2023/06/17 07:35:32;;;;;;;27.63;22.00;;;17.00;99.90;;;;;;4958359;28;89579;-33
2023/06/17 07:37:58;;;;;;;28.00;22.05;;;17.10;99.90;;;;;;4957864;28;89705;-36
2023/06/17 07:40:23;;;;;;;24.02;20.50;;;17.20;99.90;;;;;;4958782;28;88206;-33
2023/06/17 07:42:49;;;;;;;25.45;21.52;;;17.30;99.90;;;;;;4958206;28;89426;-31
2023/06/17 07:45:15;;;;;;;22.88;19.90;;;17.30;99.90;;;;;;4958401;28;90855;-34
2023/06/17 07:47:40;;;;;;;26.10;20.90;;;17.40;99.90;;;;;;4958237;28;88622;-36
2023/06/17 07:50:10;;;;;;;25.08;19.65;;;17.40;99.90;;;;;;4958455;28;90133;-37
2023/06/17 07:52:36;;;;;;;26.05;20.60;;;17.90;99.90;;;;;;4958883;28;89664;-36
2023/06/17 07:55:02;;;;;;;25.38;21.92;;;18.30;99.90;;;;;;4958257;28;88825;-33
2023/06/17 07:57:28;;;;;;;26.85;22.20;;;17.90;99.90;;;;;;4956719;28;90156;-31
2023/06/17 07:59:54;;;;;;;21.05;18.95;;;18.00;99.90;;;;;;4957908;28;90975;-36
2023/06/17 08:02:21;;;;;;;25.17;19.25;;;18.30;99.90;;;;;;4958368;28;88458;-34
2023/06/17 08:04:47;;;;;;;23.20;20.20;;;18.60;99.90;;;;;;4957557;28;90085;-35
2023/06/17 08:07:13;;;;;;;34.13;21.23;;;18.50;99.90;;;;;;4958496;28;89818;-31
2023/06/17 08:09:38;;;;;;;22.48;19.08;;;18.20;99.90;;;;;;4957614;28;90110;-32
2023/06/17 08:12:05;;;;;;;24.77;19.52;;;18.60;99.90;;;;;;4958329;28;88843;-37
2023/06/17 08:14:30;;;;;;;26.33;21.92;;;18.90;99.90;;;;;;4958170;28;92995;-32
2023/06/17 08:16:57;;;;;;;21.00;18.05;;;19.20;99.90;;;;;;4957577;28;89628;-33
2023/06/17 08:19:22;;;;;;;27.45;19.92;;;19.80;99.90;;;;;;4958005;28;90686;-34
2023/06/17 08:21:49;;;;;;;23.02;20.48;;;19.80;99.90;;;;;;4956997;28;89527;-34
2023/06/17 08:24:25;;;;;;;20.13;18.20;;;20.10;99.90;;;;;;4949629;28;90155;-33
2023/06/17 08:26:52;;;;;;;21.00;18.20;;;20.10;99.90;;;;;;4957224;28;90172;-35
2023/06/17 08:29:19;;;;;;;22.48;17.88;;;20.20;99.90;;;;;;4957764;28;90348;-33
2023/06/17 08:31:46;;;;;;;22.75;18.48;;;20.40;99.90;;;;;;4956835;28;88349;-32
2023/06/17 08:34:12;;;;;;;27.40;19.80;;;20.50;99.90;;;;;;4958277;28;90343;-33
2023/06/17 08:36:46;;;;;;;19.35;17.40;;;20.10;99.90;;;;;;4957007;28;90505;-34
2023/06/17 08:39:12;;;;;;;20.45;17.98;;;20.40;99.90;;;;;;4957854;28;89652;-34
2023/06/17 08:41:42;;;;;;;17.50;15.48;;;20.60;99.90;;;;;;4957146;28;89328;-35
2023/06/17 08:44:10;;;;;;;19.73;17.08;;;20.70;99.90;;;;;;4957503;28;90890;-33
2023/06/17 08:46:36;;;;;;;21.17;18.43;;;20.90;99.90;;;;;;4956997;28;92300;-32
2023/06/17 08:49:03;;;;;;;21.00;18.67;;;20.80;99.90;;;;;;4957264;28;90330;-33
2023/06/17 08:51:29;;;;;;;24.70;18.25;;;20.80;99.90;;;;;;4957667;28;89501;-33
2023/06/17 08:53:56;;;;;;;19.05;17.02;;;20.50;99.90;;;;;;4956784;28;90453;-35
2023/06/17 08:56:22;;;;;;;21.50;18.33;;;21.00;99.90;;;;;;4955884;28;89258;-34
2023/06/17 08:58:49;;;;;;;22.63;18.35;;;21.00;99.90;;;;;;4957908;28;89773;-33
2023/06/17 09:01:17;;;;;;;20.58;16.50;;;21.00;99.90;;;;;;4957095;28;89645;-34
2023/06/17 09:03:43;;;;;;;20.23;18.20;;;20.60;99.90;;;;;;4957072;28;88606;-36
2023/06/17 09:06:20;;;;;;;24.90;18.75;;;20.90;99.90;;;;;;4956466;28;89881;-36
2023/06/17 09:08:47;;;;;;;21.13;18.30;;;21.00;99.90;;;;;;4957192;28;89352;-35
2023/06/17 09:11:12;;;;;;;22.77;17.55;;;21.10;99.90;;;;;;4956529;28;90250;-35
2023/06/17 09:13:38;;;;;;;22.55;17.55;;;21.00;99.90;;;;;;4957795;28;90699;-35
2023/06/17 09:16:04;;;;;;;19.98;17.85;;;21.20;99.90;;;;;;4947640;28;91208;-36
2023/06/17 09:18:34;;;;;;;19.48;16.55;;;21.30;99.90;;;;;;4956071;28;89931;-35
2023/06/17 09:21:02;;;;;;;24.33;16.60;;;21.60;99.90;;;;;;4956665;28;88949;-34
2023/06/17 09:23:27;;;;;;;;;;;22.00;99.90;;;;;;4957420;28;90562;-35
2023/06/17 09:26:04;;;;;;;16.88;15.15;;;21.90;99.90;;;;;;4958926;28;90169;-34
2023/06/17 09:28:30;;;;;;;18.85;16.55;;;22.10;99.90;;;;;;4955398;28;89458;-35
2023/06/17 09:30:59;;;;;;;17.67;15.82;;;22.30;99.90;;;;;;4955883;28;89130;-34
2023/06/17 09:33:26;;;;;;;21.80;15.38;;;22.50;99.90;;;;;;4957099;28;90056;-34
2023/06/17 09:36:00;;;;;;;17.98;14.73;;;22.40;99.90;;;;;;4945025;28;90050;-33
2023/06/17 09:38:27;;;;;;;16.52;13.57;;;22.80;99.90;;;;;;4956609;28;90630;-34
2023/06/17 09:40:54;;;;;;;18.45;15.48;;;22.90;99.90;;;;;;4954774;28;89416;-34
2023/06/17 09:43:23;;;;;;;16.35;14.13;;;23.30;99.90;;;;;;4955800;28;89021;-35
2023/06/17 09:45:54;;;;;;;18.00;12.73;;;23.70;99.90;;;;;;4956791;28;89852;-34
2023/06/17 09:48:24;;;;;;;17.73;13.65;;;24.10;99.90;;;;;;4955760;28;89528;-32
2023/06/17 09:50:55;;;;;;;17.38;13.52;;;24.10;99.90;;;;;;4957694;28;89656;-35
2023/06/17 09:53:29;;;;;;;14.93;13.38;;;24.10;99.90;;;;;;4939087;28;90237;-36
2023/06/17 09:55:57;;;;;;;15.93;12.75;;;24.30;99.90;;;;;;4955773;28;89759;-34
2023/06/17 09:58:32;;;;;;;16.05;14.38;;;24.30;99.90;;;;;;4955982;28;89935;-37
2023/06/17 10:01:06;;;;;;;16.70;12.45;;;24.30;99.90;;;;;;4955965;28;90220;-36
2023/06/17 10:03:33;;;;;;;23.42;14.85;;;24.00;99.90;;;;;;4955911;28;89766;-36
2023/06/17 10:06:10;;;;;;;16.70;11.82;;;24.40;99.90;;;;;;4955928;28;90214;-34
2023/06/17 10:08:47;;;;;;;15.15;13.20;;;24.10;99.90;;;;;;4956204;28;88830;-33
2023/06/17 10:11:17;;;;;;;14.35;12.25;;;24.00;99.90;;;;;;4956317;28;89282;-35
2023/06/17 10:13:46;;;;;;;18.65;12.18;;;23.70;99.90;;;;;;4956150;28;90013;-35
2023/06/17 10:16:14;;;;;;;12.60;11.40;;;24.00;99.90;;;;;;4955290;28;90416;-33
2023/06/17 10:18:43;;;;;;;13.38;10.32;;;24.20;99.90;;;;;;4956043;28;89471;-37
2023/06/17 10:21:11;;;;;;;10.90;9.82;;;24.40;99.20;;;;;;4955321;28;89336;-34
2023/06/17 10:23:37;;;;;;;11.50;10.40;;;24.50;98.70;;;;;;4957264;28;90110;-33
2023/06/17 10:26:12;;;;;;;11.55;10.18;;;24.70;93.20;;;;;;4955444;28;93190;-34
2023/06/17 10:28:53;;;;;;;12.23;10.98;;;24.80;97.20;;;;;;4954722;28;90457;-35
2023/06/17 10:31:29;;;;;;;11.20;10.05;;;24.80;93.40;;;;;;4954958;28;88905;-34
2023/06/17 10:33:57;;;;;;;10.75;9.38;;;24.70;93.40;;;;;;4955395;28;89750;-36
2023/06/17 10:36:24;;;;;;;13.48;11.82;;;24.90;96.40;;;;;;4956613;28;89158;-37
2023/06/17 10:39:23;;;;;;;12.00;10.73;;;24.30;90.90;;;;;;4955814;28;89948;-32
2023/06/17 10:41:59;;;;;;;11.73;9.65;;;24.50;88.90;;;;;;4942297;28;89340;-33
2023/06/17 10:44:32;;;;;;;10.82;9.82;;;24.60;90.00;;;;;;4956648;28;89116;-35
2023/06/17 10:46:57;;;;;;;10.38;9.57;;;24.70;89.70;;;;;;4956612;28;89749;-36
2023/06/17 10:49:23;;;;;;;10.38;9.40;;;24.90;91.80;;;;;;4955881;28;88958;-35
2023/06/17 10:52:01;;;;;;;12.57;11.27;;;24.90;87.90;;;;;;4955956;28;88871;-34
2023/06/17 10:54:31;;;;;;;9.48;8.55;;;24.90;81.50;;;;;;4955322;28;90497;-34
2023/06/17 10:56:59;;;;;;;11.05;9.95;;;24.90;83.20;;;;;;4956729;28;89709;-35
2023/06/17 10:59:29;;;;;;;10.30;9.30;;;25.10;84.90;;;;;;4958782;28;89951;-32
2023/06/17 11:02:03;;;;;;;11.68;10.02;;;25.00;75.80;;;;;;4960175;28;89601;-35
2023/06/17 11:04:31;;;;;;;11.75;9.30;;;25.20;84.60;;;;;;4958278;28;90267;-33
2023/06/17 11:07:02;;;;;;;9.07;8.18;;;25.20;81.20;;;;;;4957181;28;91070;-35
2023/06/17 11:09:29;;;;;;;9.98;9.07;;;25.10;74.50;;;;;;4959759;28;89525;-34
2023/06/17 11:11:57;;;;;;;11.88;9.05;;;25.10;75.10;;;;;;4960090;28;89728;-37
2023/06/17 11:14:27;;;;;;;14.75;8.35;;;25.10;78.10;;;;;;4959022;28;89856;-36
2023/06/17 11:16:53;;;;;;;10.65;9.07;;;25.10;72.50;;;;;;4958660;28;90684;-35
2023/06/17 11:19:18;;;;;;;9.75;8.90;;;25.10;75.00;;;;;;4958665;28;90949;-36
2023/06/17 11:21:44;;;;;;;10.45;9.05;;;24.90;73.10;;;;;;4959847;28;88640;-36
2023/06/17 11:24:12;;;;;;;9.73;8.50;;;25.00;74.50;;;;;;4958639;28;91544;-34
2023/06/17 11:26:38;;;;;;;11.35;7.80;;;25.00;72.30;;;;;;4958597;28;90052;-35
2023/06/17 11:29:04;;;;;;;10.10;8.80;;;24.90;72.40;;;;;;4949888;28;89440;-33
2023/06/17 11:31:35;;;;;;;9.38;8.57;;;25.10;75.40;;;;;;4958987;28;88043;-33
2023/06/17 11:34:02;;;;;;;11.63;8.90;;;25.10;71.40;;;;;;4959290;28;90221;-36
2023/06/17 11:36:28;;;;;;;11.32;7.90;;;24.90;70.30;;;;;;4958800;28;90180;-34
2023/06/17 11:38:54;;;;;;;9.90;8.55;;;25.10;71.90;;;;;;4959129;28;89524;-35
2023/06/17 11:41:23;;;;;;;11.30;8.57;;;25.00;71.00;;;;;;4958839;28;90453;-36
2023/06/17 11:43:50;;;;;;;9.00;8.20;;;25.20;70.60;;;;;;4946951;28;89202;-34
2023/06/17 11:46:22;;;;;;;9.73;8.77;;;25.20;70.80;;;;;;4958816;28;89510;-33
2023/06/17 11:48:48;;;;;;;11.23;10.10;;;25.40;70.90;;;;;;4947530;28;90485;-33
2023/06/17 11:51:18;;;;;;;9.80;8.88;;;25.30;69.20;;;;;;4957771;28;88550;-33
2023/06/17 11:53:45;;;;;;;12.43;8.35;;;25.30;70.50;;;;;;4958430;28;91024;-32
2023/06/17 11:56:12;;;;;;;11.65;9.23;;;25.50;74.70;;;;;;4958560;28;90154;-35
2023/06/17 11:58:42;;;;;;;9.15;8.32;;;25.60;72.90;;;;;;4959515;28;89287;-36
2023/06/17 12:01:12;;;;;;;11.20;9.55;;;25.70;70.30;;;;;;4958774;28;88669;-34
2023/06/17 12:03:38;;;;;;;9.55;8.25;;;25.70;69.40;;;;;;4959226;28;89683;-36
2023/06/17 12:06:04;;;;;;;9.50;8.63;;;25.70;70.10;;;;;;4957963;28;90631;-34
2023/06/17 12:08:34;;;;;;;9.65;8.80;;;25.80;71.20;;;;;;4958153;28;90490;-37
2023/06/17 12:11:07;;;;;;;11.30;8.63;;;26.00;71.10;;;;;;4957720;28;89789;-35
2023/06/17 12:13:38;;;;;;;9.38;8.48;;;25.90;70.70;;;;;;4953175;28;91406;-34
2023/06/17 12:16:04;;;;;;;10.63;8.75;;;26.00;69.30;;;;;;4958751;28;91072;-33
2023/06/17 12:18:30;;;;;;;9.90;9.05;;;25.90;69.10;;;;;;4958354;28;90032;-35
2023/06/17 12:20:56;;;;;;;10.93;9.93;;;26.00;69.70;;;;;;4958719;28;89522;-35
2023/06/17 12:23:21;;;;;;;11.38;9.40;;;25.80;69.00;;;;;;4951239;28;91968;-35
2023/06/17 12:25:47;;;;;;;10.15;9.13;;;25.60;69.10;;;;;;4958078;28;89868;-34
2023/06/17 12:28:13;;;;;;;10.45;9.38;;;25.70;70.30;;;;;;4958318;28;89292;-36
2023/06/17 12:30:39;;;;;;;10.65;9.35;;;25.70;70.80;;;;;;4957352;28;91190;-32